Time;durP1;ratioP1;P1;durP2;ratioP2;P2;SDS_P1;SDS_P2;PMS_P1;PMS_P2;Temp;Humidity;BMP_temperature;BMP_pressure;BME280_temperature;BME280_humidity;BME280_pressure;Samples;Min_cycle;Max_cycle;Signal;HPM_P1;HPM_P2
2023/08/17 00:01:02;;;;;;;8.57;2.13;;;17.10;99.90;;;;;;5076285;28;20466;-58
2023/08/17 00:03:28;;;;;;;6.88;2.25;;;16.70;99.90;;;;;;5072623;28;20032;-57
2023/08/17 00:05:53;;;;;;;7.88;2.33;;;17.20;99.90;;;;;;5073465;28;20115;-58
2023/08/17 00:08:19;;;;;;;7.00;2.70;;;16.90;99.90;;;;;;5070594;28;20032;-57
2023/08/17 00:10:45;;;;;;;6.30;2.72;;;17.40;99.90;;;;;;5071385;28;20033;-57
2023/08/17 00:13:11;;;;;;;10.77;2.50;;;17.40;99.90;;;;;;5067625;28;20115;-58
2023/08/17 00:15:37;;;;;;;9.05;2.38;;;17.50;99.90;;;;;;5066842;28;20085;-57
2023/08/17 00:18:03;;;;;;;7.45;3.10;;;;;;;;;;5070194;28;20485;-58
2023/08/17 00:20:29;;;;;;;6.68;3.15;;;17.10;99.90;;;;;;5068954;28;20032;-58
2023/08/17 00:22:54;;;;;;;7.57;2.85;;;16.90;99.90;;;;;;5073007;28;20397;-58
2023/08/17 00:25:20;;;;;;;5.72;2.45;;;17.00;99.90;;;;;;5068626;28;20479;-58
2023/08/17 00:27:45;;;;;;;6.57;2.28;;;16.20;99.90;;;;;;5051475;28;20055;-57
2023/08/17 00:30:12;;;;;;;6.35;2.90;;;17.20;99.90;;;;;;5069010;28;20043;-57
2023/08/17 00:32:37;;;;;;;7.35;2.95;;;16.90;99.90;;;;;;5067823;28;20510;-58
2023/08/17 00:35:03;;;;;;;5.38;2.00;;;17.20;99.90;;;;;;5070150;28;20114;-57
2023/08/17 00:37:29;;;;;;;9.07;2.40;;;16.70;99.90;;;;;;5068043;28;20048;-58
2023/08/17 00:39:54;;;;;;;8.38;2.47;;;16.70;99.90;;;;;;5067694;28;20032;-57
2023/08/17 00:42:20;;;;;;;8.23;2.63;;;16.10;99.90;;;;;;5076029;28;20040;-56
2023/08/17 00:44:46;;;;;;;9.23;2.63;;;16.80;99.90;;;;;;5068893;28;20175;-57
2023/08/17 00:47:11;;;;;;;7.82;2.35;;;17.00;99.90;;;;;;5066804;28;20050;-58
2023/08/17 00:49:37;;;;;;;5.03;2.30;;;16.10;99.90;;;;;;5072669;28;20111;-58
2023/08/17 00:52:04;;;;;;;6.15;2.38;;;15.90;99.90;;;;;;5076325;28;20044;-57
2023/08/17 00:54:31;;;;;;;8.15;2.95;;;16.50;99.90;;;;;;5071242;28;20424;-58
2023/08/17 00:56:57;;;;;;;8.68;2.83;;;16.90;99.90;;;;;;5073191;28;20119;-57
2023/08/17 00:59:23;;;;;;;8.23;2.50;;;16.00;99.90;;;;;;5068226;28;20040;-57
2023/08/17 01:01:49;;;;;;;6.60;2.60;;;16.30;99.90;;;;;;5073353;28;20039;-56
2023/08/17 01:04:15;;;;;;;9.10;2.83;;;16.40;99.90;;;;;;5071380;28;20047;-58
2023/08/17 01:06:41;;;;;;;7.82;2.63;;;15.70;99.90;;;;;;5078857;28;20027;-58
2023/08/17 01:09:07;;;;;;;11.48;2.58;;;16.80;99.90;;;;;;5076130;28;20047;-57
2023/08/17 01:11:55;;;;;;;5.90;2.38;;;15.90;99.90;;;;;;5052558;28;20127;-58
2023/08/17 01:14:32;;;;;;;9.25;2.83;;;15.70;99.90;;;;;;5068065;28;20115;-55
2023/08/17 01:17:07;;;;;;;6.22;2.47;;;;;;;;;;5071297;28;20033;-58
2023/08/17 01:19:33;;;;;;;6.22;2.33;;;16.30;99.90;;;;;;5069369;28;20032;-57
2023/08/17 01:22:04;;;;;;;7.63;2.70;;;16.20;99.90;;;;;;5068934;28;20041;-56
2023/08/17 01:24:30;;;;;;;8.98;2.47;;;15.80;99.90;;;;;;5067640;28;20052;-57
2023/08/17 01:26:56;;;;;;;5.50;2.42;;;16.40;99.90;;;;;;5054563;28;20024;-58
2023/08/17 01:29:22;;;;;;;8.10;2.72;;;15.90;99.90;;;;;;5067979;28;20123;-57
2023/08/17 01:32:13;;;;;;;6.85;2.90;;;16.70;99.90;;;;;;5070338;28;20044;-58
2023/08/17 01:34:44;;;;;;;6.82;2.10;;;16.50;99.90;;;;;;5067823;28;20442;-56
2023/08/17 01:37:11;;;;;;;6.43;2.30;;;16.00;99.90;;;;;;5068883;28;20044;-56
2023/08/17 01:39:43;;;;;;;9.15;3.42;;;16.20;99.90;;;;;;5059527;28;20036;-57
2023/08/17 01:42:11;;;;;;;7.75;2.65;;;16.00;99.90;;;;;;5070707;28;20040;-55
2023/08/17 01:44:38;;;;;;;7.40;3.00;;;16.50;99.90;;;;;;5067046;28;20044;-56
2023/08/17 01:47:04;;;;;;;6.85;2.90;;;16.00;99.90;;;;;;5067776;28;20067;-57
2023/08/17 01:49:29;;;;;;;10.10;2.85;;;16.70;99.90;;;;;;5070084;28;20028;-57
2023/08/17 01:51:55;;;;;;;8.95;2.60;;;16.60;99.90;;;;;;5063955;28;20039;-57
2023/08/17 01:54:24;;;;;;;7.55;2.80;;;15.90;99.90;;;;;;5071869;28;20043;-57
2023/08/17 01:56:49;;;;;;;6.97;2.30;;;16.50;99.90;;;;;;5064362;28;20532;-58
2023/08/17 01:59:15;;;;;;;7.97;2.80;;;15.50;99.90;;;;;;5065476;28;20068;-56
2023/08/17 02:01:41;;;;;;;6.50;2.45;;;15.90;99.90;;;;;;5069080;28;20115;-57
2023/08/17 02:04:06;;;;;;;7.35;2.92;;;15.30;99.90;;;;;;5066704;28;20058;-56
2023/08/17 02:06:32;;;;;;;6.50;2.47;;;15.70;99.90;;;;;;5068261;28;20139;-58
2023/08/17 02:08:59;;;;;;;9.05;2.90;;;15.90;99.90;;;;;;5072130;28;20043;-56
2023/08/17 02:11:24;;;;;;;5.82;3.05;;;15.90;99.90;;;;;;5066620;28;20183;-56
2023/08/17 02:13:50;;;;;;;6.53;2.65;;;15.60;99.90;;;;;;5077609;28;20107;-58
2023/08/17 02:16:16;;;;;;;7.60;2.78;;;15.50;99.90;;;;;;5066272;28;20086;-57
2023/08/17 02:18:41;;;;;;;5.22;2.40;;;15.50;99.90;;;;;;5068816;28;20058;-57
2023/08/17 02:21:07;;;;;;;8.38;2.97;;;15.50;99.90;;;;;;5068276;28;20040;-57
2023/08/17 02:23:33;;;;;;;10.80;3.33;;;;;;;;;;5071809;28;20119;-56
2023/08/17 02:25:58;;;;;;;10.02;3.45;;;15.80;99.90;;;;;;5068813;28;20123;-57
2023/08/17 02:28:24;;;;;;;8.00;3.10;;;15.70;99.90;;;;;;5068373;28;20127;-57
2023/08/17 02:30:55;;;;;;;9.20;3.20;;;;;;;;;;5064725;28;20470;-56
2023/08/17 02:33:22;;;;;;;7.97;2.53;;;;;;;;;;5065680;28;20036;-56
2023/08/17 02:35:51;;;;;;;7.60;3.10;;;15.00;99.90;;;;;;5066484;28;20037;-57
2023/08/17 02:38:17;;;;;;;9.65;3.10;;;;;;;;;;5065221;28;20068;-56
2023/08/17 02:40:43;;;;;;;6.63;2.92;;;15.70;99.90;;;;;;5068435;28;20045;-57
2023/08/17 02:43:09;;;;;;;5.40;2.20;;;15.90;99.90;;;;;;5055117;28;20106;-57
2023/08/17 02:45:35;;;;;;;6.70;2.63;;;16.40;99.90;;;;;;5068719;28;20036;-57
2023/08/17 02:48:01;;;;;;;9.77;2.88;;;15.60;99.90;;;;;;5068809;28;20107;-58
2023/08/17 02:50:26;;;;;;;8.20;3.10;;;15.50;99.90;;;;;;5067927;28;20553;-56
2023/08/17 02:52:52;;;;;;;7.85;3.13;;;15.80;99.90;;;;;;5067309;28;20048;-57
2023/08/17 02:55:18;;;;;;;8.77;3.83;;;;;;;;;;5064789;28;20037;-56
2023/08/17 02:57:44;;;;;;;7.88;3.22;;;15.60;99.90;;;;;;5062496;28;20630;-55
2023/08/17 03:00:10;;;;;;;7.60;3.42;;;15.80;1.00;;;;;;5068516;28;20029;-57
2023/08/17 03:02:35;;;;;;;9.25;3.20;;;16.30;99.90;;;;;;5067934;28;20067;-57
2023/08/17 03:05:02;;;;;;;7.50;3.63;;;15.60;1.00;;;;;;5068612;28;20103;-56
2023/08/17 03:07:28;;;;;;;6.82;3.15;;;16.20;1.00;;;;;;5065167;28;20067;-56
2023/08/17 03:09:54;;;;;;;8.38;3.40;;;16.10;1.00;;;;;;5069525;28;20458;-56
2023/08/17 03:12:20;;;;;;;6.63;3.10;;;;;;;;;;5068341;28;20127;-56
2023/08/17 03:14:45;;;;;;;8.18;3.15;;;15.60;1.00;;;;;;5062928;28;20115;-56
2023/08/17 03:17:11;;;;;;;8.80;3.60;;;15.60;1.00;;;;;;5072074;28;20033;-57
2023/08/17 03:19:37;;;;;;;6.85;3.75;;;15.50;1.00;;;;;;5070667;28;20032;-55
2023/08/17 03:22:02;;;;;;;8.00;3.55;;;15.50;1.00;;;;;;5072291;28;20048;-57
2023/08/17 03:24:28;;;;;;;8.32;3.67;;;15.60;1.00;;;;;;5071158;28;20041;-57
2023/08/17 03:26:54;;;;;;;9.68;3.90;;;15.40;1.00;;;;;;5071733;28;20098;-55
2023/08/17 03:29:19;;;;;;;7.88;3.30;;;15.40;1.00;;;;;;5073594;28;20041;-56
2023/08/17 03:31:46;;;;;;;6.47;3.08;;;;;;;;;;5063685;28;20105;-56
2023/08/17 03:34:11;;;;;;;6.38;3.15;;;15.60;1.00;;;;;;5064402;28;20041;-57
2023/08/17 03:36:37;;;;;;;7.38;3.70;;;15.60;1.00;;;;;;5070683;28;20042;-57
2023/08/17 03:39:03;;;;;;;7.68;3.63;;;15.60;1.00;;;;;;5064418;28;20029;-57
2023/08/17 03:41:28;;;;;;;9.18;3.35;;;15.50;1.00;;;;;;5068101;28;20549;-57
2023/08/17 03:43:54;;;;;;;7.20;3.08;;;15.70;1.00;;;;;;5071548;28;20452;-57
2023/08/17 03:46:20;;;;;;;6.95;2.92;;;15.50;6.70;;;;;;5072585;28;20060;-55
2023/08/17 03:48:45;;;;;;;9.45;3.40;;;15.70;5.40;;;;;;5066647;28;20037;-57
2023/08/17 03:51:11;;;;;;;7.68;3.08;;;15.50;1.00;;;;;;5082932;28;20072;-57
2023/08/17 03:53:37;;;;;;;8.57;3.15;;;;;;;;;;5070520;28;20038;-57
2023/08/17 03:56:03;;;;;;;8.25;2.85;;;15.60;10.50;;;;;;5068735;28;20406;-56
2023/08/17 03:58:33;;;;;;;6.38;2.92;;;15.60;4.40;;;;;;5063351;28;20032;-58
2023/08/17 04:00:59;;;;;;;6.80;3.00;;;;;;;;;;5066465;28;20515;-55
2023/08/17 04:03:25;;;;;;;7.07;2.95;;;;;;;;;;5069841;28;20050;-56
2023/08/17 04:05:50;;;;;;;7.20;3.05;;;15.60;18.50;;;;;;5077367;28;20124;-55
2023/08/17 04:08:16;;;;;;;8.60;3.15;;;15.80;11.90;;;;;;5070078;28;20132;-57
2023/08/17 04:10:41;;;;;;;7.82;2.50;;;15.70;34.30;;;;;;5067236;28;20127;-57
2023/08/17 04:13:07;;;;;;;7.97;2.80;;;15.30;21.90;;;;;;5071045;28;20028;-55
2023/08/17 04:15:33;;;;;;;6.70;3.00;;;15.30;27.80;;;;;;5070624;28;20554;-57
2023/08/17 04:17:59;;;;;;;7.75;3.13;;;15.20;31.70;;;;;;5071242;28;20050;-58
2023/08/17 04:20:25;;;;;;;8.63;2.90;;;16.00;32.80;;;;;;5062631;28;20078;-57
2023/08/17 04:22:51;;;;;;;9.27;2.70;;;;;;;;;;5065611;28;20303;-57
2023/08/17 04:25:17;;;;;;;5.38;2.25;;;15.60;66.70;;;;;;5065645;28;20040;-57
2023/08/17 04:27:43;;;;;;;8.27;2.70;;;15.60;79.20;;;;;;5066955;28;20504;-58
2023/08/17 04:30:10;;;;;;;7.32;3.20;;;;;;;;;;5068995;28;20190;-58
2023/08/17 04:32:35;;;;;;;7.60;2.63;;;15.70;89.90;;;;;;5064667;28;20050;-58
2023/08/17 04:35:01;;;;;;;6.32;2.35;;;15.60;89.70;;;;;;5065542;28;20107;-58
2023/08/17 04:37:27;;;;;;;6.10;2.58;;;15.80;79.40;;;;;;5069070;28;20068;-58
2023/08/17 04:39:52;;;;;;;7.65;2.80;;;15.70;69.50;;;;;;5065038;28;20214;-57
2023/08/17 04:42:19;;;;;;;5.55;2.30;;;15.80;84.10;;;;;;5070508;28;20045;-58
2023/08/17 04:44:45;;;;;;;5.72;2.35;;;15.40;67.50;;;;;;5069549;28;20482;-58
2023/08/17 04:47:11;;;;;;;9.07;2.50;;;15.90;81.80;;;;;;5070239;28;20044;-57
2023/08/17 04:49:37;;;;;;;7.47;2.63;;;15.40;76.50;;;;;;5061543;28;20044;-57
2023/08/17 04:52:03;;;;;;;5.60;2.65;;;16.30;74.40;;;;;;5064007;28;20050;-58
2023/08/17 04:54:28;;;;;;;6.95;2.72;;;16.50;68.20;;;;;;5072250;28;20523;-58
2023/08/17 04:56:54;;;;;;;6.18;2.25;;;15.90;89.90;;;;;;5075282;28;20036;-57
2023/08/17 04:59:20;;;;;;;6.97;2.85;;;15.40;71.90;;;;;;5063352;28;20037;-58
2023/08/17 05:01:45;;;;;;;6.93;2.35;;;16.50;55.70;;;;;;5066211;28;20040;-58
2023/08/17 05:04:11;;;;;;;7.45;2.70;;;16.00;59.20;;;;;;5068576;28;20461;-58
2023/08/17 05:06:39;;;;;;;5.75;2.40;;;;;;;;;;5070780;28;20461;-58
2023/08/17 05:09:06;;;;;;;8.10;2.78;;;;;;;;;;5062230;28;20040;-58
2023/08/17 05:11:32;;;;;;;9.60;2.25;;;16.10;75.30;;;;;;5057595;28;20102;-57
2023/08/17 05:13:57;;;;;;;7.82;2.35;;;16.00;72.70;;;;;;5059781;28;20033;-56
2023/08/17 05:16:23;;;;;;;5.78;2.60;;;16.40;57.10;;;;;;5076717;28;20028;-58
2023/08/17 05:18:49;;;;;;;7.85;2.22;;;16.10;61.40;;;;;;5064458;28;20086;-58
2023/08/17 05:21:14;;;;;;;5.43;2.28;;;16.50;74.20;;;;;;5064604;28;20048;-57
2023/08/17 05:23:40;;;;;;;6.03;2.45;;;16.10;66.80;;;;;;5070005;28;20064;-58
2023/08/17 05:26:05;;;;;;;6.43;2.60;;;16.10;85.40;;;;;;5065457;28;20044;-58
2023/08/17 05:28:31;;;;;;;6.97;1.90;;;16.70;72.40;;;;;;5067701;28;20037;-57
2023/08/17 05:31:03;;;;;;;8.05;2.83;;;;;;;;;;5065625;28;20033;-58
2023/08/17 05:33:28;;;;;;;6.10;2.10;;;16.60;63.70;;;;;;5063691;28;20295;-58
2023/08/17 05:35:55;;;;;;;6.22;2.10;;;16.20;39.00;;;;;;5065414;28;20075;-59
2023/08/17 05:38:20;;;;;;;8.27;2.63;;;15.80;33.10;;;;;;5068476;28;20041;-58
2023/08/17 05:40:46;;;;;;;7.47;2.13;;;16.20;53.60;;;;;;5069174;28;20543;-56
2023/08/17 05:43:11;;;;;;;7.47;1.77;;;16.30;58.70;;;;;;5069064;28;20029;-57
2023/08/17 05:45:37;;;;;;;8.80;2.30;;;16.40;34.00;;;;;;5067914;28;20040;-58
2023/08/17 05:48:03;;;;;;;6.55;2.03;;;16.00;14.60;;;;;;5064572;28;20033;-58
2023/08/17 05:50:30;;;;;;;5.18;1.50;;;16.50;1.00;;;;;;5064529;28;20068;-57
2023/08/17 05:52:56;;;;;;;4.88;1.58;;;16.50;1.00;;;;;;5064680;28;20048;-58
2023/08/17 05:55:21;;;;;;;4.65;1.55;;;15.80;1.00;;;;;;5067994;28;20039;-57
2023/08/17 05:57:47;;;;;;;5.53;1.60;;;15.90;1.00;;;;;;5069803;28;20379;-58
2023/08/17 06:00:13;;;;;;;6.43;1.75;;;16.80;1.00;;;;;;5063289;28;20037;-57
2023/08/17 06:02:39;;;;;;;8.32;2.15;;;16.90;1.00;;;;;;5060708;28;20033;-58
2023/08/17 06:05:06;;;;;;;5.55;1.60;;;16.50;1.00;;;;;;5053441;28;20165;-58
2023/08/17 06:07:31;;;;;;;4.82;2.05;;;17.00;1.00;;;;;;5068502;28;20028;-58
2023/08/17 06:09:57;;;;;;;5.72;1.55;;;16.40;1.00;;;;;;5063963;28;20032;-58
2023/08/17 06:12:23;;;;;;;5.57;1.70;;;;;;;;;;5066390;28;20045;-56
2023/08/17 06:14:48;;;;;;;5.28;2.10;;;16.90;1.00;;;;;;5063869;28;20068;-58
2023/08/17 06:17:14;;;;;;;4.65;1.63;;;16.30;1.00;;;;;;5069729;28;20072;-56
2023/08/17 06:19:40;;;;;;;6.68;2.05;;;16.20;1.00;;;;;;5068909;28;20116;-58
2023/08/17 06:22:05;;;;;;;4.80;1.63;;;16.90;1.00;;;;;;5069279;28;20039;-57
2023/08/17 06:24:31;;;;;;;5.18;1.38;;;17.00;1.00;;;;;;5068984;28;20044;-56
2023/08/17 06:26:57;;;;;;;5.40;1.92;;;16.80;1.00;;;;;;5069175;28;20050;-58
2023/08/17 06:29:22;;;;;;;5.07;1.77;;;16.80;1.00;;;;;;5062316;28;20388;-58
2023/08/17 06:31:48;;;;;;;6.40;1.70;;;16.60;1.00;;;;;;5068048;28;20131;-57
2023/08/17 06:34:15;;;;;;;6.53;2.17;;;17.40;1.00;;;;;;5069149;28;20529;-58
2023/08/17 06:36:40;;;;;;;4.07;1.45;;;17.20;1.00;;;;;;5064878;28;20490;-58
2023/08/17 06:39:06;;;;;;;5.18;1.73;;;17.30;1.00;;;;;;5051293;28;20297;-58
2023/08/17 06:41:32;;;;;;;6.65;1.80;;;17.10;1.00;;;;;;5068702;28;20482;-57
2023/08/17 06:43:57;;;;;;;6.13;1.67;;;17.40;2.20;;;;;;5070308;28;20140;-58
2023/08/17 06:46:24;;;;;;;7.63;1.90;;;17.30;1.00;;;;;;5067936;28;20043;-58
2023/08/17 06:48:50;;;;;;;5.47;1.80;;;17.50;1.00;;;;;;5067988;28;20123;-58
2023/08/17 06:51:15;;;;;;;6.50;1.95;;;17.60;1.00;;;;;;5072391;28;20528;-56
2023/08/17 06:53:43;;;;;;;4.93;1.58;;;;;;;;;;5071592;28;20093;-59
2023/08/17 06:56:09;;;;;;;6.68;1.95;;;17.70;1.00;;;;;;5061727;28;20032;-57
2023/08/17 06:58:35;;;;;;;6.90;1.90;;;17.30;1.00;;;;;;5072024;28;20109;-58
2023/08/17 07:01:00;;;;;;;6.60;1.70;;;17.60;1.00;;;;;;5072081;28;20486;-58
2023/08/17 07:03:26;;;;;;;6.47;2.10;;;18.00;1.00;;;;;;5073016;28;20032;-58
2023/08/17 07:05:52;;;;;;;5.47;1.50;;;18.00;1.00;;;;;;5072004;28;20037;-56
2023/08/17 07:08:18;;;;;;;6.07;1.80;;;18.10;99.90;;;;;;5073164;28;20355;-58
2023/08/17 07:10:43;;;;;;;5.35;1.67;;;18.00;99.90;;;;;;5070241;28;20116;-58
2023/08/17 07:13:09;;;;;;;5.10;1.45;;;18.70;99.90;;;;;;5072280;28;20040;-58
2023/08/17 07:15:35;;;;;;;5.78;1.60;;;17.50;99.90;;;;;;5071111;28;20044;-58
2023/08/17 07:18:00;;;;;;;5.78;1.83;;;18.20;99.90;;;;;;5072049;28;20036;-58
2023/08/17 07:20:26;;;;;;;4.50;1.65;;;17.90;99.90;;;;;;5068739;28;20036;-58
2023/08/17 07:22:51;;;;;;;5.35;1.58;;;17.80;99.90;;;;;;5071313;28;20489;-58
2023/08/17 07:25:17;;;;;;;6.88;1.92;;;18.00;99.90;;;;;;5068652;28;20047;-58
2023/08/17 07:27:43;;;;;;;5.43;1.50;;;18.00;99.90;;;;;;5056611;28;20036;-58
2023/08/17 07:30:09;;;;;;;5.18;1.55;;;17.90;99.90;;;;;;5062684;28;20036;-58
2023/08/17 07:32:35;;;;;;;6.25;1.60;;;18.10;99.90;;;;;;5063169;28;20486;-58
2023/08/17 07:35:00;;;;;;;5.72;1.60;;;18.00;99.90;;;;;;5064025;28;20245;-57
2023/08/17 07:37:32;;;;;;;7.88;1.90;;;18.50;99.90;;;;;;5071123;28;20486;-58
2023/08/17 07:39:58;;;;;;;4.75;1.40;;;18.60;99.90;;;;;;5071382;28;20122;-58
2023/08/17 07:42:24;;;;;;;5.13;1.33;;;18.10;99.90;;;;;;5072186;28;20041;-58
2023/08/17 07:44:49;;;;;;;5.80;1.50;;;18.40;99.90;;;;;;5071351;28;20465;-58
2023/08/17 07:47:15;;;;;;;5.32;1.40;;;18.20;99.90;;;;;;5071650;28;20433;-57
2023/08/17 07:49:41;;;;;;;3.72;1.42;;;18.80;99.90;;;;;;5071533;28;20033;-56
2023/08/17 07:52:06;;;;;;;4.25;1.40;;;19.00;94.20;;;;;;5070466;28;20040;-58
2023/08/17 07:54:32;;;;;;;5.15;1.30;;;19.60;64.50;;;;;;5071819;28;20033;-57
2023/08/17 07:56:58;;;;;;;5.03;1.20;;;19.00;54.40;;;;;;5067463;28;20115;-57
2023/08/17 07:59:23;;;;;;;5.47;1.35;;;18.50;33.70;;;;;;5071560;28;20505;-56
2023/08/17 08:01:49;;;;;;;4.60;1.33;;;18.50;22.30;;;;;;5070845;28;20408;-57
2023/08/17 08:04:14;;;;;;;4.82;1.30;;;19.30;1.00;;;;;;5064812;28;20048;-57
2023/08/17 08:06:40;;;;;;;5.10;1.20;;;18.50;1.00;;;;;;5070858;28;20119;-57
2023/08/17 08:09:06;;;;;;;4.40;1.40;;;19.00;1.00;;;;;;5068333;28;20040;-57
2023/08/17 08:11:32;;;;;;;5.28;1.52;;;19.20;1.00;;;;;;5065703;28;20486;-56
2023/08/17 08:13:58;;;;;;;10.95;1.52;;;19.10;1.00;;;;;;5069482;28;20040;-57
2023/08/17 08:16:23;;;;;;;6.30;1.20;;;18.90;1.00;;;;;;5067389;28;20033;-55
2023/08/17 08:18:49;;;;;;;8.00;1.30;;;19.50;1.00;;;;;;5071535;28;20520;-58
2023/08/17 08:21:15;;;;;;;3.80;1.23;;;18.60;1.00;;;;;;5057691;28;20041;-57
2023/08/17 08:23:40;;;;;;;5.88;1.58;;;19.20;1.00;;;;;;5071736;28;20120;-57
2023/08/17 08:26:06;;;;;;;6.15;1.30;;;19.10;1.00;;;;;;5069835;28;20074;-56
2023/08/17 08:28:31;;;;;;;6.53;1.67;;;19.00;1.00;;;;;;5070869;28;20584;-56
2023/08/17 08:31:02;;;;;;;4.20;1.20;;;19.00;1.00;;;;;;5070320;28;20052;-57
2023/08/17 08:33:28;;;;;;;4.45;1.17;;;18.30;1.00;;;;;;5066114;28;20033;-57
2023/08/17 08:35:54;;;;;;;4.30;1.33;;;19.40;1.00;;;;;;5067344;28;20417;-57
2023/08/17 08:38:19;;;;;;;4.07;1.30;;;19.50;1.00;;;;;;5071275;28;20047;-57
2023/08/17 08:40:47;;;;;;;8.23;2.17;;;19.30;1.00;;;;;;5071048;28;20044;-57
2023/08/17 08:43:14;;;;;;;4.00;1.13;;;18.90;1.00;;;;;;5070645;28;20036;-58
2023/08/17 08:45:42;;;;;;;5.15;1.40;;;18.90;1.00;;;;;;5064759;28;20033;-58
2023/08/17 08:48:19;;;;;;;9.05;1.83;;;19.50;1.00;;;;;;5061732;28;20528;-56
2023/08/17 08:50:47;;;;;;;5.05;1.42;;;19.30;1.00;;;;;;5070519;28;20423;-56
2023/08/17 08:53:19;;;;;;;3.55;1.10;;;19.90;1.00;;;;;;5068907;28;20079;-57
2023/08/17 08:55:54;;;;;;;5.63;1.70;;;19.90;1.00;;;;;;5070046;28;20102;-57
2023/08/17 08:58:22;;;;;;;4.43;1.25;;;19.80;1.00;;;;;;5059859;28;20147;-58
2023/08/17 09:00:48;;;;;;;4.80;1.10;;;19.60;1.00;;;;;;5058983;28;20052;-57
2023/08/17 09:03:17;;;;;;;4.88;1.15;;;20.10;99.90;;;;;;5065682;28;20051;-57
2023/08/17 09:05:46;;;;;;;6.53;1.50;;;20.30;99.90;;;;;;5067563;28;20044;-57
2023/08/17 09:08:14;;;;;;;5.53;1.58;;;19.80;99.90;;;;;;5058871;28;20045;-56
2023/08/17 09:10:41;;;;;;;6.57;1.50;;;20.40;99.90;;;;;;5064456;28;20119;-56
2023/08/17 09:13:07;;;;;;;4.35;1.50;;;20.60;99.90;;;;;;5066637;28;20040;-54
2023/08/17 09:15:32;;;;;;;4.20;1.27;;;20.30;99.90;;;;;;5068770;28;20052;-56
2023/08/17 09:17:58;;;;;;;4.60;1.52;;;20.20;99.90;;;;;;5069225;28;20032;-56
2023/08/17 09:20:38;;;;;;;4.45;1.33;;;20.80;99.90;;;;;;5069635;28;20166;-58
2023/08/17 09:23:04;;;;;;;3.75;1.15;;;20.30;99.90;;;;;;5060209;28;20617;-56
2023/08/17 09:25:33;;;;;;;4.53;1.30;;;20.00;99.90;;;;;;5068497;28;20047;-57
2023/08/17 09:28:07;;;;;;;5.38;1.60;;;20.50;99.90;;;;;;5068866;28;20029;-58
2023/08/17 09:30:33;;;;;;;4.30;1.23;;;20.60;99.90;;;;;;5063090;28;20036;-58
2023/08/17 09:33:02;;;;;;;4.28;1.38;;;20.40;99.90;;;;;;5068569;28;20043;-58
2023/08/17 09:35:31;;;;;;;4.93;1.55;;;20.50;99.90;;;;;;5069887;28;20040;-58
2023/08/17 09:37:57;;;;;;;4.13;1.20;;;20.00;99.90;;;;;;5069295;28;20032;-57
2023/08/17 09:40:26;;;;;;;4.32;1.33;;;20.60;99.90;;;;;;5069611;28;20562;-57
2023/08/17 09:42:53;;;;;;;6.05;1.20;;;20.10;99.90;;;;;;5069965;28;20127;-57
2023/08/17 09:45:19;;;;;;;4.80;1.25;;;20.70;99.90;;;;;;5064175;28;20040;-58
2023/08/17 09:47:46;;;;;;;7.15;1.40;;;20.70;99.90;;;;;;5069210;28;20112;-58
2023/08/17 09:50:11;;;;;;;6.53;1.65;;;20.00;99.90;;;;;;5068815;28;20043;-58
2023/08/17 09:52:39;;;;;;;4.22;1.30;;;20.00;99.90;;;;;;5069365;28;20040;-58
2023/08/17 09:55:07;;;;;;;5.00;1.40;;;21.30;99.90;;;;;;5064153;28;20032;-57
2023/08/17 09:57:34;;;;;;;5.18;1.55;;;21.10;99.90;;;;;;5069025;28;20059;-57
2023/08/17 09:59:59;;;;;;;3.90;1.48;;;21.00;99.90;;;;;;5067086;28;20040;-57
2023/08/17 10:02:27;;;;;;;4.13;1.40;;;21.10;99.90;;;;;;5069255;28;20129;-56
2023/08/17 10:04:53;;;;;;;5.15;1.30;;;21.40;99.90;;;;;;5066677;28;20036;-58
2023/08/17 10:07:21;;;;;;;6.40;2.10;;;21.90;99.90;;;;;;5068359;28;20048;-56
2023/08/17 10:10:01;;;;;;;5.28;1.30;;;21.20;99.90;;;;;;5067112;28;20052;-58
2023/08/17 10:12:29;;;;;;;4.25;1.33;;;21.80;99.90;;;;;;5063404;28;20094;-56
2023/08/17 10:15:01;;;;;;;6.70;1.63;;;22.10;99.90;;;;;;5064636;28;20043;-57
2023/08/17 10:17:30;;;;;;;5.30;1.77;;;21.90;99.90;;;;;;5061118;28;20040;-57
2023/08/17 10:19:58;;;;;;;7.43;1.60;;;21.40;99.90;;;;;;5067962;28;20320;-57
2023/08/17 10:22:42;;;;;;;4.22;1.50;;;22.20;99.90;;;;;;5066438;28;20041;-56
2023/08/17 10:25:11;;;;;;;5.75;1.65;;;22.10;99.90;;;;;;5063274;28;20037;-57
2023/08/17 10:27:37;;;;;;;4.10;1.95;;;21.90;99.90;;;;;;5066954;28;20056;-58
2023/08/17 10:30:04;;;;;;;6.72;1.67;;;22.50;99.90;;;;;;5067098;28;20460;-57
2023/08/17 10:32:30;;;;;;;4.10;1.33;;;22.30;99.90;;;;;;5060247;28;20040;-58
2023/08/17 10:34:57;;;;;;;5.05;1.40;;;22.30;99.90;;;;;;5068545;28;20364;-57
2023/08/17 10:37:24;;;;;;;3.95;1.30;;;22.20;99.90;;;;;;5061024;28;20044;-54
2023/08/17 10:39:51;;;;;;;5.38;1.55;;;22.20;99.90;;;;;;5067924;28;20153;-57
2023/08/17 10:42:35;;;;;;;6.03;1.67;;;22.40;99.90;;;;;;5065186;28;20045;-56
2023/08/17 10:45:03;;;;;;;5.30;1.77;;;;;;;;;;5062574;28;20114;-56
2023/08/17 10:47:32;;;;;;;7.55;1.80;;;22.80;99.90;;;;;;5062449;28;20083;-56
2023/08/17 10:49:59;;;;;;;5.65;1.60;;;21.70;99.90;;;;;;5064149;28;20032;-56
2023/08/17 10:52:32;;;;;;;5.07;1.55;;;22.50;99.90;;;;;;5065106;28;20489;-56
2023/08/17 10:55:06;;;;;;;5.57;1.60;;;22.50;99.90;;;;;;5068670;28;20068;-57
2023/08/17 10:57:36;;;;;;;;;;;22.40;99.90;;;;;;5049972;28;20044;-56
2023/08/17 11:00:26;;;;;;;5.30;1.60;;;22.50;99.90;;;;;;5066842;28;19920;-57
2023/08/17 11:02:58;;;;;;;4.57;1.40;;;21.90;99.90;;;;;;5067117;28;20489;-57
2023/08/17 11:05:40;;;;;;;5.60;1.40;;;22.70;99.90;;;;;;5067542;28;20046;-57
2023/08/17 11:08:09;;;;;;;5.20;1.55;;;22.60;99.90;;;;;;5057194;28;20099;-57
2023/08/17 11:10:35;;;;;;;5.32;1.30;;;22.60;99.90;;;;;;5067234;28;20085;-54
2023/08/17 11:13:01;;;;;;;7.63;1.85;;;22.90;99.90;;;;;;5068256;28;20417;-56
2023/08/17 11:15:43;;;;;;;6.55;1.75;;;22.40;99.90;;;;;;5064531;28;20037;-56
2023/08/17 11:18:10;;;;;;;4.43;1.50;;;22.60;99.90;;;;;;5066499;28;20072;-57
2023/08/17 11:20:38;;;;;;;5.47;1.80;;;22.70;99.90;;;;;;5062401;28;20071;-57
2023/08/17 11:23:05;;;;;;;8.02;2.15;;;22.90;99.90;;;;;;5066727;28;20044;-57
2023/08/17 11:25:32;;;;;;;7.85;2.00;;;23.20;99.90;;;;;;5067905;28;20044;-56
2023/08/17 11:27:59;;;;;;;5.35;1.58;;;22.50;99.90;;;;;;5062727;28;20082;-56
2023/08/17 11:30:27;;;;;;;6.97;1.58;;;22.90;99.90;;;;;;5065148;28;20045;-56
2023/08/17 11:32:54;;;;;;;8.57;2.00;;;22.60;99.90;;;;;;5067062;28;20036;-57
2023/08/17 11:35:21;;;;;;;5.93;1.92;;;22.70;99.90;;;;;;5068506;28;20461;-57
2023/08/17 11:37:50;;;;;;;5.60;1.70;;;22.90;99.90;;;;;;5065550;28;20111;-57
2023/08/17 11:40:16;;;;;;;5.47;1.70;;;23.30;99.90;;;;;;5060928;28;20058;-56
2023/08/17 11:42:43;;;;;;;6.45;1.88;;;23.20;99.90;;;;;;5069250;28;20086;-57
2023/08/17 11:45:09;;;;;;;6.85;1.70;;;23.10;99.90;;;;;;5069056;28;20051;-57
2023/08/17 11:47:39;;;;;;;4.90;1.67;;;23.10;99.90;;;;;;5058466;28;20115;-58
2023/08/17 11:50:06;;;;;;;9.23;1.83;;;23.20;99.90;;;;;;5061791;28;20049;-58
2023/08/17 11:52:36;;;;;;;5.40;2.05;;;23.00;99.90;;;;;;5063530;28;20434;-58
2023/08/17 11:55:05;;;;;;;5.57;1.80;;;23.50;97.80;;;;;;5067325;28;20482;-57
2023/08/17 11:57:31;;;;;;;5.20;1.77;;;23.80;99.90;;;;;;5067080;28;20417;-57
2023/08/17 11:59:58;;;;;;;6.30;2.10;;;23.40;97.30;;;;;;5067770;28;20052;-57
2023/08/17 12:02:24;;;;;;;4.93;1.90;;;23.40;97.30;;;;;;5068890;28;20513;-58
2023/08/17 12:04:51;;;;;;;7.53;2.00;;;24.20;96.30;;;;;;5070667;28;20047;-58
2023/08/17 12:07:18;;;;;;;6.20;1.70;;;23.90;91.60;;;;;;5066120;28;20043;-56
2023/08/17 12:09:47;;;;;;;8.32;1.92;;;23.50;93.50;;;;;;5066475;28;20382;-57
2023/08/17 12:12:13;;;;;;;6.80;2.15;;;23.80;76.00;;;;;;5069111;28;20043;-56
2023/08/17 12:14:45;;;;;;;8.23;1.85;;;24.70;92.10;;;;;;5059914;28;20025;-58
2023/08/17 12:17:18;;;;;;;6.07;1.70;;;24.00;94.00;;;;;;5067393;28;20067;-57
2023/08/17 12:19:44;;;;;;;5.85;1.67;;;24.00;92.40;;;;;;5070156;28;20035;-55
2023/08/17 12:22:12;;;;;;;6.75;1.90;;;24.00;87.90;;;;;;5067565;28;20093;-56
2023/08/17 12:24:38;;;;;;;6.63;1.70;;;24.60;88.20;;;;;;5066990;28;20043;-56
2023/08/17 12:27:05;;;;;;;6.22;1.80;;;24.90;83.00;;;;;;5068312;28;20405;-54
2023/08/17 12:29:31;;;;;;;5.25;1.67;;;24.30;75.50;;;;;;5060966;28;20055;-58
2023/08/17 12:31:58;;;;;;;6.43;1.85;;;24.50;81.10;;;;;;5069513;28;20037;-58
2023/08/17 12:34:23;;;;;;;7.75;2.13;;;24.00;83.40;;;;;;5069519;28;20040;-58
2023/08/17 12:36:49;;;;;;;5.88;1.67;;;23.90;74.60;;;;;;5068234;28;20035;-56
2023/08/17 12:39:16;;;;;;;4.80;2.20;;;24.50;79.30;;;;;;5065663;28;20108;-58
2023/08/17 12:41:41;;;;;;;5.57;1.92;;;23.70;76.00;;;;;;5068812;28;20116;-58
2023/08/17 12:44:09;;;;;;;5.70;2.20;;;24.70;74.60;;;;;;5067488;28;20537;-57
2023/08/17 12:46:35;;;;;;;8.55;2.40;;;23.80;72.20;;;;;;5057598;28;20741;-57
2023/08/17 12:49:00;;;;;;;7.10;2.22;;;23.90;71.70;;;;;;5063704;28;20075;-57
2023/08/17 12:51:26;;;;;;;7.18;2.25;;;25.00;70.90;;;;;;5068143;28;20039;-56
2023/08/17 12:53:52;;;;;;;7.53;1.88;;;24.80;65.70;;;;;;5069466;28;20037;-57